Time;durP1;ratioP1;P1;durP2;ratioP2;P2;SDS_P1;SDS_P2;PMS_P1;PMS_P2;Temp;Humidity;BMP_temperature;BMP_pressure;BME280_temperature;BME280_humidity;BME280_pressure;Samples;Min_cycle;Max_cycle;Signal;HPM_P1;HPM_P2
2022/03/28 00:00:38;;;;;;;21.42;10.93;;;;;;;8.63;67.78;100924.22;4910478;29;20016;-84
2022/03/28 00:03:05;;;;;;;23.30;11.48;;;;;;;8.26;68.63;100920.31;4923747;29;20052;-85
2022/03/28 00:05:31;;;;;;;21.83;11.63;;;;;;;8.17;69.14;100921.63;4924099;29;20091;-85
2022/03/28 00:07:56;;;;;;;18.00;11.20;;;;;;;8.05;69.36;100914.19;4923211;29;20503;-83
2022/03/28 00:10:21;;;;;;;18.60;11.50;;;;;;;8.18;68.99;100923.28;4924072;29;20039;-84
2022/03/28 00:12:46;;;;;;;20.27;12.15;;;;;;;8.33;69.02;100925.69;4939599;28;21418;-84
2022/03/28 00:15:12;;;;;;;16.90;10.33;;;;;;;8.48;68.83;100911.75;4927476;29;20649;-85
2022/03/28 00:20:40;;;;;;;19.25;10.13;;;;;;;8.59;68.49;100904.81;4936223;28;20633;-84
2022/03/28 00:23:06;;;;;;;19.15;10.38;;;;;;;8.56;68.70;100907.94;4923092;29;20126;-85
2022/03/28 00:25:31;;;;;;;18.30;10.52;;;;;;;8.47;69.03;100901.97;4923829;29;20116;-84
2022/03/28 00:27:57;;;;;;;19.83;11.63;;;;;;;8.50;69.09;100904.22;4923253;29;20451;-83
2022/03/28 00:30:22;;;;;;;24.42;10.68;;;;;;;8.55;69.27;100900.00;4913803;29;20047;-84
2022/03/28 00:32:48;;;;;;;22.35;11.48;;;;;;;8.35;69.69;100895.56;4910336;29;20533;-84
2022/03/28 00:35:13;;;;;;;23.63;12.73;;;;;;;8.37;70.39;100893.47;4909593;29;20027;-84
2022/03/28 00:37:41;;;;;;;20.92;11.32;;;;;;;8.43;70.18;100887.16;4909362;29;20544;-84
2022/03/28 00:40:07;;;;;;;20.75;11.15;;;;;;;8.33;70.66;100892.25;4908593;29;20043;-84
2022/03/28 00:42:33;;;;;;;24.13;11.88;;;;;;;8.42;70.37;100885.47;4908910;29;20028;-85
2022/03/28 00:44:58;;;;;;;21.30;12.02;;;;;;;8.30;70.68;100882.66;4908312;29;20400;-84
2022/03/28 00:47:24;;;;;;;21.35;10.65;;;;;;;8.39;70.44;100891.38;4912017;29;20087;-83
2022/03/28 00:49:49;;;;;;;26.05;11.55;;;;;;;8.43;70.31;100873.56;4907325;29;20044;-83
2022/03/28 00:52:15;;;;;;;22.25;12.73;;;;;;;8.48;70.18;100872.91;4907057;29;20043;-84
2022/03/28 00:54:40;;;;;;;27.17;13.68;;;;;;;8.41;70.48;100883.81;4909996;29;20032;-84
2022/03/28 00:57:06;;;;;;;24.35;13.27;;;;;;;8.20;70.93;100877.72;4909244;29;20028;-85
2022/03/28 00:59:32;;;;;;;22.63;12.52;;;;;;;8.23;70.84;100877.28;4909265;29;20535;-85
2022/03/28 01:01:59;;;;;;;27.20;12.80;;;;;;;8.23;71.46;100871.84;4908359;29;20069;-83
2022/03/28 01:04:24;;;;;;;23.10;12.35;;;;;;;8.31;71.37;100872.63;4904307;29;20028;-83
2022/03/28 01:06:51;;;;;;;28.05;14.38;;;;;;;8.18;71.81;100867.06;4909555;29;20550;-84
2022/03/28 01:09:18;;;;;;;25.60;11.82;;;;;;;8.22;71.65;100862.03;4908783;29;20019;-82
2022/03/28 01:11:46;;;;;;;23.65;12.45;;;;;;;8.28;71.41;100861.13;4906115;29;20047;-85
2022/03/28 01:14:12;;;;;;;22.05;13.73;;;;;;;8.26;71.77;100857.81;4911086;29;20028;-84
2022/03/28 01:19:23;;;;;;;28.10;13.98;;;;;;;8.37;71.69;100845.41;4912221;29;20859;-84
2022/03/28 01:21:49;;;;;;;21.70;11.10;;;;;;;8.39;71.39;100846.00;4911957;29;20036;-85
2022/03/28 01:24:15;;;;;;;20.40;11.18;;;;;;;8.29;71.93;100841.06;4912661;29;20031;-84
2022/03/28 01:26:40;;;;;;;21.77;11.68;;;;;;;8.28;71.78;100833.97;4912283;29;20024;-85
2022/03/28 01:29:06;;;;;;;18.73;10.88;;;;;;;8.21;72.67;100838.66;4914926;29;20025;-85
2022/03/28 01:31:31;;;;;;;21.08;10.43;;;;;;;8.33;72.62;100836.03;4933211;29;20057;-86
2022/03/28 01:33:57;;;;;;;21.97;10.33;;;;;;;8.28;73.17;100833.97;4950832;29;20032;-86
2022/03/28 01:36:28;;;;;;;19.58;11.38;;;;;;;8.37;72.79;100828.25;4950574;29;20304;-85
2022/03/28 01:38:54;;;;;;;20.58;12.40;;;;;;;8.39;73.04;100826.16;4950651;29;20114;-85
2022/03/28 01:41:19;;;;;;;20.70;11.13;;;;;;;8.34;73.49;100823.28;4938914;28;20455;-85
2022/03/28 01:43:44;;;;;;;19.92;10.68;;;;;;;8.35;73.78;100817.63;4930749;29;20289;-85
2022/03/28 01:46:09;;;;;;;20.57;11.10;;;;;;;8.53;73.72;100815.97;4931512;29;20117;-85
2022/03/28 01:48:35;;;;;;;18.92;10.20;;;;;;;8.75;73.74;100813.66;4930373;29;20333;-85
2022/03/28 01:51:00;;;;;;;18.05;10.90;;;;;;;8.59;73.98;100811.53;4931184;29;20032;-84
2022/03/28 01:53:25;;;;;;;23.43;10.57;;;;;;;8.63;74.17;100810.03;4930653;29;20063;-85
2022/03/28 01:55:50;;;;;;;18.27;8.97;;;;;;;8.61;74.64;100804.00;4930624;29;20270;-85
2022/03/28 01:58:16;;;;;;;18.33;10.63;;;;;;;8.66;73.70;100796.00;4930743;29;20266;-85
2022/03/28 02:00:41;;;;;;;24.88;11.48;;;;;;;8.69;73.64;100805.56;4930556;29;20282;-85
2022/03/28 02:03:06;;;;;;;18.35;10.48;;;;;;;8.59;74.33;100801.50;4945608;29;20027;-85
2022/03/28 02:05:31;;;;;;;21.93;10.03;;;;;;;8.68;73.63;100793.88;4949854;29;20801;-85
2022/03/28 02:07:58;;;;;;;18.10;10.57;;;;;;;8.58;74.28;100786.25;4950219;29;20277;-85
2022/03/28 02:10:23;;;;;;;20.33;10.60;;;;;;;8.60;74.36;100788.75;4945672;29;20028;-85
2022/03/28 02:15:51;;;;;;;21.65;9.55;;;;;;;8.56;74.50;100774.75;4925899;29;20051;-84
2022/03/28 02:18:17;;;;;;;17.85;9.73;;;;;;;8.60;74.17;100778.69;4930287;29;20028;-85
2022/03/28 02:20:42;;;;;;;19.57;9.07;;;;;;;8.65;74.49;100780.72;4930632;29;20048;-85
2022/03/28 02:23:07;;;;;;;25.73;11.53;;;;;;;8.72;73.91;100781.50;4929524;29;20270;-85
2022/03/28 02:25:37;;;;;;;22.53;11.20;;;;;;;8.78;73.54;100777.03;4930782;29;20941;-85
2022/03/28 02:28:05;;;;;;;14.98;8.98;;;;;;;8.64;74.09;100757.34;4929956;29;20779;-85
2022/03/28 02:30:31;;;;;;;22.85;11.23;;;;;;;8.63;74.27;100771.97;4929789;29;20067;-84
2022/03/28 02:32:57;;;;;;;19.70;9.95;;;;;;;8.68;73.96;100766.72;4944218;29;20027;-85
2022/03/28 02:35:23;;;;;;;19.48;9.70;;;;;;;8.47;74.05;100763.34;4949189;29;20019;-85
2022/03/28 02:37:49;;;;;;;22.35;11.32;;;;;;;8.32;75.17;100762.88;4949526;29;20023;-84
2022/03/28 02:40:15;;;;;;;18.60;11.05;;;;;;;8.17;75.84;100764.06;4948047;29;20034;-85
2022/03/28 02:42:41;;;;;;;18.13;10.80;;;;;;;8.22;75.52;100761.50;4949934;29;20023;-85
2022/03/28 02:45:07;;;;;;;18.90;9.70;;;;;;;8.35;74.85;100759.72;4949588;29;20035;-85
2022/03/28 02:47:32;;;;;;;16.88;9.23;;;;;;;8.35;74.42;100754.28;4928053;29;20059;-85
2022/03/28 02:49:57;;;;;;;15.60;9.90;;;;;;;8.37;74.43;100757.59;4948215;29;20074;-84
2022/03/28 02:52:23;;;;;;;20.85;11.25;;;;;;;8.32;73.75;100750.13;4927024;29;20028;-85
2022/03/28 02:54:49;;;;;;;16.92;8.63;;;;;;;8.31;74.13;100736.75;4946884;29;20399;-85
2022/03/28 02:57:14;;;;;;;23.67;9.75;;;;;;;8.25;73.72;100741.22;4948407;29;20059;-85
2022/03/28 02:59:40;;;;;;;23.45;11.85;;;;;;;8.04;74.20;100738.69;4949367;29;20035;-85
2022/03/28 03:02:05;;;;;;;23.50;10.63;;;;;;;7.99;74.24;100746.69;4940759;29;20470;-84
2022/03/28 03:04:32;;;;;;;20.42;11.55;;;;;;;8.04;74.27;100743.28;4929350;29;20046;-84
2022/03/28 03:06:58;;;;;;;18.25;10.02;;;;;;;7.87;74.80;100734.91;4929045;29;20042;-85
2022/03/28 03:09:23;;;;;;;22.48;10.50;;;;;;;7.70;75.21;100733.56;4929018;29;20031;-85
2022/03/28 03:11:49;;;;;;;20.98;12.13;;;;;;;7.82;74.61;100739.13;4928587;29;20032;-84
2022/03/28 03:14:14;;;;;;;22.10;11.55;;;;;;;7.48;75.09;100736.66;4929292;29;20038;-84
2022/03/28 03:16:40;;;;;;;23.37;11.50;;;;;;;7.28;75.58;100733.25;4928933;29;20027;-85
2022/03/28 03:19:06;;;;;;;24.90;14.48;;;;;;;7.19;76.47;100735.41;4928664;29;20250;-85
2022/03/28 03:21:31;;;;;;;20.38;11.52;;;;;;;7.17;76.08;100740.19;4929215;29;20443;-85
2022/03/28 03:23:56;;;;;;;19.67;12.50;;;;;;;7.19;76.43;100727.25;4929154;29;20035;-85
2022/03/28 03:26:22;;;;;;;22.17;11.97;;;;;;;7.24;76.36;100725.53;4929560;29;20028;-84
2022/03/28 03:28:47;;;;;;;18.88;10.77;;;;;;;7.31;75.80;100722.78;4928885;29;20262;-85
2022/03/28 03:31:12;;;;;;;21.80;13.10;;;;;;;7.30;75.85;100723.84;4911378;29;20043;-86
2022/03/28 03:33:38;;;;;;;25.92;13.57;;;;;;;7.09;76.38;100725.88;4947947;29;20345;-85
2022/03/28 03:36:04;;;;;;;27.05;14.18;;;;;;;7.27;75.74;100718.84;4943958;29;20047;-85
2022/03/28 03:38:30;;;;;;;20.77;12.55;;;;;;;7.25;75.63;100715.53;4946250;29;20054;-84
2022/03/28 03:41:08;;;;;;;22.13;11.93;;;;;;;7.29;75.82;100721.34;4938220;29;20536;-85
2022/03/28 03:43:33;;;;;;;22.75;12.05;;;;;;;7.30;74.80;100720.31;4912411;29;20039;-85
2022/03/28 03:45:59;;;;;;;23.48;14.77;;;;;;;7.23;75.38;100720.34;4929105;29;20032;-86
2022/03/28 03:48:26;;;;;;;36.28;14.80;;;;;;;7.16;75.17;100717.66;4947030;29;20114;-85
2022/03/28 03:50:53;;;;;;;25.70;12.45;;;;;;;7.17;75.24;100702.22;4940798;29;20043;-84
2022/03/28 03:53:19;;;;;;;25.02;12.32;;;;;;;7.26;75.12;100706.34;4911651;29;20028;-85
2022/03/28 03:55:45;;;;;;;21.10;13.75;;;;;;;7.24;75.10;100703.03;4929901;29;20561;-84
2022/03/28 03:58:11;;;;;;;26.17;14.63;;;;;;;7.13;75.53;100693.72;4928993;29;20024;-84
2022/03/28 04:00:36;;;;;;;20.80;12.52;;;;;;;7.19;75.34;100700.97;4929028;29;20028;-86
2022/03/28 04:03:02;;;;;;;28.25;15.60;;;;;;;7.12;75.03;100700.16;4944041;28;20027;-85
2022/03/28 04:05:28;;;;;;;24.35;14.15;;;;;;;6.95;76.36;100706.13;4952149;29;20404;-85
2022/03/28 04:07:53;;;;;;;25.70;13.30;;;;;;;6.96;76.61;100698.81;4952410;29;20106;-84
2022/03/28 04:10:18;;;;;;;26.27;13.40;;;;;;;6.93;76.74;100701.97;4948260;29;20032;-85
2022/03/28 04:12:44;;;;;;;19.65;11.38;;;;;;;6.91;77.18;100704.91;4933444;29;20095;-84
2022/03/28 04:15:10;;;;;;;25.53;13.20;;;;;;;6.83;76.99;100700.56;4932069;29;20034;-84
2022/03/28 04:17:40;;;;;;;29.55;15.73;;;;;;;6.71;77.32;100689.56;4932900;29;20262;-85
2022/03/28 04:20:06;;;;;;;25.73;14.05;;;;;;;6.94;76.75;100699.03;4930192;29;20138;-86
2022/03/28 04:22:31;;;;;;;22.42;13.05;;;;;;;7.04;76.23;100698.56;4931868;29;20625;-85
2022/03/28 04:24:56;;;;;;;22.20;12.10;;;;;;;7.10;76.42;100691.41;4931600;29;20035;-85
2022/03/28 04:30:08;;;;;;;17.92;11.52;;;;;;;7.05;76.50;100678.53;4916663;29;20393;-87
2022/03/28 04:32:34;;;;;;;21.40;11.68;;;;;;;7.07;77.21;100681.03;4921059;29;20024;-85
2022/03/28 04:35:00;;;;;;;21.98;12.75;;;;;;;6.74;78.16;100685.59;4912698;29;20123;-86
2022/03/28 04:37:26;;;;;;;19.20;10.80;;;;;;;6.89;77.43;100688.03;4912493;29;20035;-86
2022/03/28 04:39:51;;;;;;;26.60;12.05;;;;;;;7.02;77.20;100686.28;4913236;29;20028;-85
2022/03/28 04:42:17;;;;;;;19.67;10.85;;;;;;;6.95;76.75;100686.31;4894743;29;20029;-85
2022/03/28 04:44:42;;;;;;;24.50;13.48;;;;;;;7.05;76.46;100692.09;4894424;29;20124;-85
2022/03/28 04:47:08;;;;;;;20.55;10.73;;;;;;;7.06;76.37;100690.22;4902256;29;20068;-85
2022/03/28 04:49:33;;;;;;;25.92;14.35;;;;;;;6.95;76.39;100695.28;4911905;29;20028;-85
2022/03/28 04:51:59;;;;;;;19.60;11.63;;;;;;;6.94;76.26;100692.78;4912223;29;20118;-85
2022/03/28 04:54:24;;;;;;;25.95;12.82;;;;;;;6.95;77.14;100689.03;4911536;29;20038;-86
2022/03/28 04:56:50;;;;;;;25.48;14.32;;;;;;;6.78;76.68;100692.25;4912224;29;20032;-85
2022/03/28 04:59:17;;;;;;;22.40;12.10;;;;;;;6.87;77.28;100696.38;4912018;29;20047;-85
2022/03/28 05:01:42;;;;;;;25.23;12.52;;;;;;;6.89;77.71;100698.88;4911154;29;20420;-85
2022/03/28 05:04:07;;;;;;;31.52;16.33;;;;;;;6.93;77.66;100699.25;4912415;29;20032;-85
2022/03/28 05:06:33;;;;;;;21.45;11.75;;;;;;;7.12;76.89;100695.59;4910136;29;20036;-85
2022/03/28 05:08:58;;;;;;;23.27;14.85;;;;;;;7.20;76.53;100688.25;4912305;29;20484;-84
2022/03/28 05:11:23;;;;;;;31.08;15.20;;;;;;;7.01;76.37;100690.88;4910808;29;20032;-85
2022/03/28 05:13:50;;;;;;;25.58;14.45;;;;;;;6.77;78.03;100683.25;4912858;29;20767;-85
2022/03/28 05:16:16;;;;;;;25.83;13.05;;;;;;;6.99;77.72;100682.13;4906561;29;20052;-86
2022/03/28 05:18:42;;;;;;;26.60;15.98;;;;;;;6.96;77.89;100686.09;4906565;29;20032;-85
2022/03/28 05:21:07;;;;;;;25.23;13.48;;;;;;;7.04;77.08;100682.28;4906831;29;20091;-84
2022/03/28 05:23:32;;;;;;;24.35;15.55;;;;;;;6.86;78.31;100686.56;4906007;29;20080;-85
2022/03/28 05:25:58;;;;;;;29.02;14.93;;;;;;;6.86;78.72;100683.00;4907547;29;20403;-85
2022/03/28 05:28:23;;;;;;;24.58;13.45;;;;;;;6.96;78.20;100691.50;4906895;29;20443;-85
2022/03/28 05:30:49;;;;;;;27.23;15.52;;;;;;;6.99;78.27;100687.53;4916260;29;20067;-86
2022/03/28 05:33:14;;;;;;;26.02;13.20;;;;;;;6.94;77.66;100676.50;4905790;29;20060;-86
2022/03/28 05:35:42;;;;;;;27.50;13.60;;;;;;;6.75;77.15;100689.97;4907017;29;20072;-85
2022/03/28 05:38:08;;;;;;;25.77;12.50;;;;;;;6.54;78.86;100679.22;4890081;29;20028;-85
2022/03/28 05:40:33;;;;;;;23.92;13.68;;;;;;;6.82;77.60;100684.50;4906012;29;20028;-86
2022/03/28 05:42:58;;;;;;;27.52;14.52;;;;;;;6.84;77.69;100677.81;4907191;29;20067;-86
2022/03/28 05:45:25;;;;;;;29.00;13.95;;;;;;;6.87;77.55;100677.41;4906128;29;20079;-84
2022/03/28 05:47:50;;;;;;;31.05;16.50;;;;;;;6.67;77.37;100682.09;4920209;29;20398;-85
2022/03/28 05:50:15;;;;;;;30.52;15.65;;;;;;;6.87;77.70;100677.41;4922241;29;20032;-86
2022/03/28 05:52:40;;;;;;;26.30;13.73;;;;;;;6.98;77.35;100666.88;4907020;29;20074;-85
2022/03/28 05:55:19;;;;;;;29.67;13.52;;;;;;;6.99;76.99;100674.81;4908489;29;20036;-82
2022/03/28 05:57:44;;;;;;;21.30;12.60;;;;;;;6.67;78.61;100682.09;4910832;29;20216;-86
2022/03/28 06:00:12;;;;;;;22.08;14.45;;;;;;;6.73;79.34;100682.03;4911755;29;20035;-84
2022/03/28 06:02:37;;;;;;;28.63;13.52;;;;;;;7.09;78.00;100679.75;4908434;29;20032;-85
2022/03/28 06:05:03;;;;;;;24.05;12.50;;;;;;;7.22;77.66;100675.31;4905613;29;20036;-86
2022/03/28 06:07:28;;;;;;;27.77;12.02;;;;;;;7.24;78.41;100675.91;4905330;29;20036;-86
2022/03/28 06:09:53;;;;;;;22.30;13.20;;;;;;;7.33;77.97;100666.44;4906812;29;20024;-85
2022/03/28 06:12:19;;;;;;;18.30;9.30;;;;;;;7.41;77.92;100664.50;4909055;29;20036;-85
2022/03/28 06:14:44;;;;;;;25.13;12.93;;;;;;;7.56;78.01;100670.44;4896700;29;21305;-88
2022/03/28 06:17:11;;;;;;;22.20;10.90;;;;;;;7.64;78.20;100666.59;4907248;29;20048;-86
2022/03/28 06:19:37;;;;;;;17.50;10.00;;;;;;;7.74;77.73;100663.38;4910838;29;20262;-86
2022/03/28 06:22:02;;;;;;;25.05;13.38;;;;;;;7.62;78.55;100659.72;4910858;29;20040;-85
2022/03/28 06:24:28;;;;;;;23.98;11.05;;;;;;;7.67;78.69;100668.03;4927745;29;20036;-85
2022/03/28 06:26:53;;;;;;;18.55;10.60;;;;;;;7.68;78.96;100662.41;4911081;29;20108;-85
2022/03/28 06:29:18;;;;;;;22.15;11.75;;;;;;;7.69;79.29;100665.91;4909692;29;20110;-85
2022/03/28 06:31:44;;;;;;;19.25;12.63;;;;;;;7.86;79.51;100654.47;4910384;29;20066;-84
2022/03/28 06:34:10;;;;;;;17.20;10.32;;;;;;;7.92;79.02;100650.88;4905599;29;20032;-85
2022/03/28 06:36:35;;;;;;;20.13;10.43;;;;;;;8.14;78.08;100655.84;4908812;29;20028;-87
2022/03/28 06:39:02;;;;;;;20.13;12.98;;;;;;;8.31;77.68;100655.25;4916133;29;20078;-84
2022/03/28 06:41:28;;;;;;;18.95;11.07;;;;;;;8.41;77.43;100650.94;4917959;29;20020;-84
2022/03/28 06:43:53;;;;;;;21.23;10.73;;;;;;;8.34;77.06;100650.19;4923830;29;20726;-83
2022/03/28 06:46:20;;;;;;;22.23;11.23;;;;;;;8.59;76.97;100646.56;4917912;29;20032;-84
2022/03/28 06:48:45;;;;;;;26.25;13.05;;;;;;;8.67;76.97;100658.16;4920766;29;20350;-82
2022/03/28 06:51:11;;;;;;;26.02;13.95;;;;;;;8.69;76.85;100651.44;4914095;29;20497;-81
2022/03/28 06:53:36;;;;;;;25.42;12.63;;;;;;;8.58;77.41;100654.97;4913630;29;20591;-81
2022/03/28 06:56:15;;;;;;;21.33;13.07;;;;;;;8.44;77.85;100651.56;4918146;29;20020;-81
2022/03/28 06:58:41;;;;;;;20.23;11.88;;;;;;;8.59;77.73;100656.59;4917124;29;21032;-83
2022/03/28 07:01:07;;;;;;;25.65;14.07;;;;;;;8.77;77.33;100650.28;4916395;29;20274;-83
2022/03/28 07:03:32;;;;;;;21.92;12.43;;;;;;;8.92;74.00;100649.88;4921329;29;20020;-82
2022/03/28 07:05:57;;;;;;;21.15;11.93;;;;;;;9.16;74.03;100655.38;4911431;29;20039;-83
2022/03/28 07:08:23;;;;;;;22.42;12.13;;;;;;;9.21;73.62;100655.50;4923088;29;20027;-83
2022/03/28 07:10:48;;;;;;;22.77;12.18;;;;;;;9.22;72.00;100649.00;4898891;29;20028;-82
2022/03/28 07:13:13;;;;;;;26.13;11.63;;;;;;;9.30;75.22;100641.53;4912913;29;20639;-82
2022/03/28 07:15:39;;;;;;;19.63;12.02;;;;;;;9.22;75.34;100635.41;4927111;29;20258;-82
2022/03/28 07:18:07;;;;;;;22.95;12.40;;;;;;;9.30;76.38;100638.81;4919242;29;20024;-84
2022/03/28 07:20:32;;;;;;;18.60;10.10;;;;;;;9.37;75.97;100633.28;4900026;29;20032;-81
2022/03/28 07:22:59;;;;;;;18.42;11.70;;;;;;;9.40;74.16;100630.91;4905316;29;20035;-82
2022/03/28 07:25:26;;;;;;;18.80;11.50;;;;;;;9.55;71.71;100632.34;4916549;29;20038;-83
2022/03/28 07:27:52;;;;;;;21.67;11.57;;;;;;;9.61;72.25;100628.69;4922230;29;20110;-83
2022/03/28 07:30:20;;;;;;;24.80;13.65;;;;;;;9.60;74.03;100621.56;4931295;29;20055;-81
2022/03/28 07:32:46;;;;;;;19.25;11.20;;;;;;;9.72;73.61;100618.03;4938556;29;20027;-81
2022/03/28 07:35:14;;;;;;;22.85;11.68;;;;;;;9.76;74.20;100625.44;4944354;29;20077;-82
2022/03/28 07:37:42;;;;;;;22.00;13.45;;;;;;;9.71;74.18;100617.19;4943299;28;20166;-81
2022/03/28 07:40:09;;;;;;;25.52;12.80;;;;;;;9.89;72.54;100618.09;4943302;29;20750;-82
2022/03/28 07:42:37;;;;;;;26.42;12.13;;;;;;;9.91;72.78;100605.91;4906452;29;20028;-81
2022/03/28 07:45:05;;;;;;;24.25;15.02;;;;;;;9.96;73.32;100612.53;4907440;29;20710;-82
2022/03/28 07:47:43;;;;;;;25.88;14.20;;;;;;;9.88;72.89;100614.56;4927588;29;20027;-81
2022/03/28 07:50:10;;;;;;;26.92;14.45;;;;;;;9.96;71.77;100617.97;4944708;29;20032;-82
2022/03/28 07:52:35;;;;;;;29.05;12.75;;;;;;;10.04;71.97;100604.00;4945740;29;20079;-81
2022/03/28 07:55:02;;;;;;;24.58;13.48;;;;;;;10.02;71.08;100603.41;4930471;29;20572;-81
2022/03/28 07:57:27;;;;;;;26.52;15.15;;;;;;;10.16;71.65;100606.69;4926116;29;20047;-81
2022/03/28 07:59:53;;;;;;;27.08;14.85;;;;;;;10.12;71.74;100600.91;4924717;29;20035;-83
2022/03/28 08:02:18;;;;;;;26.25;14.93;;;;;;;10.09;71.92;100606.00;4925399;29;20515;-82
2022/03/28 08:04:45;;;;;;;23.98;14.95;;;;;;;10.20;71.01;100605.13;4927572;29;20063;-85
2022/03/28 08:07:11;;;;;;;33.42;16.27;;;;;;;10.26;73.22;100606.06;4927331;29;20039;-84
2022/03/28 08:09:38;;;;;;;25.05;15.48;;;;;;;10.45;71.69;100597.69;4928018;29;20492;-85
2022/03/28 08:12:05;;;;;;;23.88;14.27;;;;;;;10.43;70.56;100594.41;4920986;29;20046;-84
2022/03/28 08:14:30;;;;;;;25.88;13.43;;;;;;;10.52;71.20;100598.41;4924425;29;20370;-84
2022/03/28 08:16:56;;;;;;;20.83;13.00;;;;;;;10.53;71.13;100602.81;4922678;29;20291;-84
2022/03/28 08:19:22;;;;;;;21.75;13.52;;;;;;;10.53;72.05;100600.06;4923391;29;20031;-84
2022/03/28 08:21:47;;;;;;;19.60;12.38;;;;;;;10.56;71.02;100593.28;4916850;29;20110;-85
2022/03/28 08:24:13;;;;;;;28.95;13.38;;;;;;;10.72;70.76;100586.22;4925553;29;20035;-83
2022/03/28 08:26:38;;;;;;;23.27;12.48;;;;;;;10.77;70.46;100580.03;4937733;29;20134;-82
2022/03/28 08:29:05;;;;;;;21.95;14.80;;;;;;;10.84;70.07;100580.72;4920285;29;20114;-85
2022/03/28 08:31:31;;;;;;;23.25;13.02;;;;;;;10.80;70.65;100580.34;4934828;29;20402;-83
2022/03/28 08:33:56;;;;;;;32.38;15.18;;;;;;;10.89;71.38;100566.31;4927559;29;20031;-83
2022/03/28 08:36:22;;;;;;;20.67;12.23;;;;;;;10.93;71.05;100571.03;4943178;29;20086;-83
2022/03/28 08:38:48;;;;;;;22.25;13.88;;;;;;;10.89;72.86;100569.03;4940688;29;20264;-86
2022/03/28 08:41:14;;;;;;;24.40;14.38;;;;;;;11.00;71.42;100564.59;4923067;29;20094;-85
2022/03/28 08:43:40;;;;;;;32.65;13.93;;;;;;;11.05;71.70;100560.03;4942029;29;20524;-87
2022/03/28 08:46:08;;;;;;;24.90;12.40;;;;;;;11.20;71.71;100564.09;4942168;29;20456;-82
2022/03/28 08:48:38;;;;;;;25.63;13.88;;;;;;;11.25;70.69;100557.88;4943062;29;20517;-82
2022/03/28 08:51:04;;;;;;;30.02;13.60;;;;;;;11.35;70.65;100560.75;4938089;28;20023;-83
2022/03/28 08:53:29;;;;;;;25.55;13.60;;;;;;;11.43;70.62;100551.31;4946181;29;20554;-83
2022/03/28 08:55:55;;;;;;;22.98;13.90;;;;;;;11.49;70.45;100563.13;4945248;29;20034;-82
2022/03/28 09:01:23;;;;;;;26.15;12.82;;;;;;;11.58;71.91;100547.97;4934304;29;20046;-84
2022/03/28 09:03:49;;;;;;;23.83;13.02;;;;;;;11.57;71.59;100554.53;4946270;29;20477;-86
2022/03/28 09:06:37;;;;;;;25.63;13.45;;;;;;;11.81;71.25;100556.19;4945771;29;20078;-84
2022/03/28 09:09:21;;;;;;;25.80;14.90;;;;;;;11.72;72.41;100553.88;4944575;29;20097;-85
2022/03/28 09:12:06;;;;;;;31.50;17.25;;;;;;;11.86;72.10;100548.03;4945743;29;20039;-82
2022/03/28 09:14:37;;;;;;;24.95;15.55;;;;;;;12.12;70.81;100554.66;4929635;29;20451;-83
2022/03/28 09:17:10;;;;;;;27.73;15.13;;;;;;;12.20;69.26;100544.38;4925033;29;20308;-86
2022/03/28 09:19:49;;;;;;;30.05;15.45;;;;;;;12.24;69.92;100543.59;4927359;29;20182;-83
2022/03/28 09:22:19;;;;;;;36.80;15.43;;;;;;;12.36;68.60;100539.88;4925945;29;20211;-84
2022/03/28 09:24:46;;;;;;;24.25;14.35;;;;;;;12.44;70.04;100542.16;4926051;29;20028;-84
2022/03/28 09:27:15;;;;;;;27.65;14.98;;;;;;;12.60;69.17;100539.56;4926813;29;20032;-84
2022/03/28 09:29:53;;;;;;;26.23;14.52;;;;;;;12.61;69.63;100538.47;4926969;29;20055;-85
2022/03/28 09:32:21;;;;;;;24.13;15.30;;;;;;;12.83;68.52;100524.69;4926872;29;20082;-86
2022/03/28 09:35:02;;;;;;;32.05;17.75;;;;;;;12.86;68.86;100531.56;4925492;29;20394;-85
2022/03/28 09:37:28;;;;;;;27.15;17.05;;;;;;;12.91;68.20;100528.06;4926412;29;20474;-86
2022/03/28 09:39:54;;;;;;;30.80;18.42;;;;;;;13.01;67.43;100530.06;4925791;29;20199;-85
2022/03/28 09:42:19;;;;;;;38.67;18.83;;;;;;;13.06;67.49;100516.38;4930439;29;20235;-86
2022/03/28 09:44:48;;;;;;;32.45;16.98;;;;;;;13.22;66.77;100516.50;4946278;29;20030;-86
2022/03/28 09:47:16;;;;;;;29.23;16.45;;;;;;;13.26;66.49;100517.63;4949278;29;20042;-87
2022/03/28 09:49:43;;;;;;;35.55;19.40;;;;;;;13.29;66.52;100517.91;4950991;29;20043;-86
2022/03/28 09:52:13;;;;;;;28.20;17.23;;;;;;;13.40;66.70;100513.31;4931506;29;20035;-86
2022/03/28 09:54:52;;;;;;;38.05;18.40;;;;;;;13.49;66.32;100512.81;4927788;29;20532;-83
2022/03/28 09:57:22;;;;;;;36.25;18.05;;;;;;;13.59;65.82;100510.16;4931458;29;20028;-85
2022/03/28 09:59:48;;;;;;;30.10;16.38;;;;;;;13.68;65.12;100509.66;4925550;29;20027;-87
2022/03/28 10:02:22;;;;;;;37.17;17.23;;;;;;;13.74;65.21;100500.34;4926610;29;20051;-86
2022/03/28 10:04:50;;;;;;;26.92;16.90;;;;;;;13.81;65.35;100503.66;4921736;29;20418;-86
2022/03/28 10:07:16;;;;;;;35.00;18.27;;;;;;;13.84;65.31;100500.41;4907355;29;20478;-86
2022/03/28 10:09:42;;;;;;;33.00;17.50;;;;;;;13.81;65.45;100500.13;4924226;29;20039;-86
2022/03/28 10:12:08;;;;;;;29.45;17.40;;;;;;;13.96;65.15;100497.41;4922985;29;20134;-83
2022/03/28 10:14:34;;;;;;;28.27;16.48;;;;;;;14.16;64.13;100497.72;4923153;29;20528;-83
2022/03/28 10:17:05;;;;;;;33.83;18.55;;;;;;;14.36;63.55;100494.19;4922786;29;20518;-83
2022/03/28 10:19:33;;;;;;;32.03;18.50;;;;;;;14.35;63.50;100487.91;4924259;29;20047;-83
2022/03/28 10:22:03;;;;;;;33.22;19.55;;;;;;;14.49;63.32;100481.88;4921845;29;20035;-85
2022/03/28 10:24:30;;;;;;;36.35;18.13;;;;;;;14.61;63.46;100472.53;4924271;29;20274;-84
2022/03/28 10:26:58;;;;;;;36.10;20.60;;;;;;;14.71;63.22;100470.63;4923667;29;20214;-85
2022/03/28 10:29:36;;;;;;;36.03;17.55;;;;;;;14.64;62.75;100461.84;4921407;29;20047;-84
2022/03/28 10:32:08;;;;;;;32.97;18.30;;;;;;;14.80;62.17;100459.09;4922667;29;20108;-84
2022/03/28 10:34:56;;;;;;;34.35;19.52;;;;;;;15.07;61.73;100454.41;4923193;29;20149;-84
2022/03/28 10:37:27;;;;;;;33.13;18.42;;;;;;;15.05;61.68;100443.69;4906869;29;20540;-85
2022/03/28 10:40:16;;;;;;;35.67;19.27;;;;;;;15.16;60.91;100444.47;4924267;29;20111;-86
2022/03/28 10:42:47;;;;;;;27.38;15.10;;;;;;;15.33;60.50;100443.34;4922278;29;20039;-85
2022/03/28 10:45:18;;;;;;;30.10;17.60;;;;;;;15.40;60.62;100438.34;4923756;29;20027;-85
2022/03/28 10:47:49;;;;;;;33.38;19.85;;;;;;;15.43;60.25;100448.78;4924222;29;20083;-86
2022/03/28 10:50:20;;;;;;;40.17;19.52;;;;;;;15.51;59.64;100437.22;4931867;29;20042;-84
2022/03/28 10:53:15;;;;;;;35.60;20.55;;;;;;;15.64;59.13;100430.28;4924313;29;20360;-85
2022/03/28 10:55:51;;;;;;;42.63;19.88;;;;;;;15.75;57.81;100433.78;4923590;29;20039;-85
2022/03/28 10:58:23;;;;;;;31.65;15.85;;;;;;;15.75;54.90;100432.97;4910724;29;20051;-86
2022/03/28 11:01:07;;;;;;;33.60;16.88;;;;;;;15.92;56.78;100421.59;4930769;29;20442;-85
2022/03/28 11:03:41;;;;;;;34.80;17.95;;;;;;;16.03;57.17;100421.56;4931746;29;20046;-86
2022/03/28 11:06:07;;;;;;;30.33;13.73;;;;;;;16.20;55.80;100411.00;4933206;29;20128;-85
2022/03/28 11:08:36;;;;;;;26.35;13.90;;;;;;;16.26;55.81;100410.94;4931315;29;20169;-85
2022/03/28 11:11:22;;;;;;;29.88;15.77;;;;;;;16.34;56.48;100404.81;4932784;29;20514;-85
2022/03/28 11:14:00;;;;;;;30.92;14.80;;;;;;;16.42;56.73;100401.44;4932174;28;20590;-85
2022/03/28 11:16:54;;;;;;;32.75;14.70;;;;;;;16.44;56.18;100398.41;4931422;29;20540;-85
2022/03/28 11:19:22;;;;;;;28.02;16.05;;;;;;;16.62;55.53;100399.59;4926205;29;20028;-85
2022/03/28 11:22:02;;;;;;;27.92;16.60;;;;;;;16.78;55.38;100391.22;4922312;29;20039;-78
2022/03/28 11:24:54;;;;;;;27.10;15.00;;;;;;;16.82;54.78;100392.25;4925435;29;20024;-85
2022/03/28 11:27:28;;;;;;;29.75;15.77;;;;;;;16.98;55.18;100383.81;4923951;29;20056;-84
2022/03/28 11:30:10;;;;;;;33.85;19.15;;;;;;;17.03;54.61;100386.50;4923975;29;20054;-85